Aviation Digital Data Service (ADDS)

Output produced by METARs form (0019 UTC 17 July 2019)
found at http://www.aviationweather.gov/metar/data/
 
Forecast for: VEAT (AGARTALA , IN)
Text: TAF VEAT 162300Z 1700/1709 17003KT 2500 BR FEW018 SCT100
Forecast period: 0000 to 0200 UTC 17 July 2019
Forecast type: FROM: standard forecast or significant change
Winds: from the S (170 degrees) at 3 MPH (3 knots; 1.5 m/s)
Visibility: 1.55 miles (2.49 km)
Ceiling: at least 12,000 feet AGL
Clouds: few clouds at 1800 feet AGL
scattered clouds at 10000 feet AGL
Weather: BR  (mist)
Text: BECMG 1702/1704 3000 BR
Forecast period: 0200 to 0500 UTC 17 July 2019
Forecast type: BECOMING: Conditions expected to become as follows by 0400 UTC 17 July 2019
Winds: from the S (170 degrees) at 3 MPH (3 knots; 1.5 m/s)
Visibility: 1.86 miles (2.99 km)
Ceiling: at least 12,000 feet AGL
Clouds: few clouds at 1800 feet AGL
scattered clouds at 10000 feet AGL
Weather: BR  (mist)
Text: BECMG 1705/1707 5000 HZ FEW018 SCT025
Forecast period: 0500 to 0900 UTC 17 July 2019
Forecast type: BECOMING: Conditions expected to become as follows by 0700 UTC 17 July 2019
Winds: from the S (170 degrees) at 3 MPH (3 knots; 1.5 m/s)
Visibility: 3 miles (5 km)
Ceiling: at least 12,000 feet AGL
Clouds: few clouds at 1800 feet AGL
scattered clouds at 2500 feet AGL
Weather: HZ  (haze)